sim
Sign-in with your pilot id or email,
or register
Callsign
Passwort

Schedule Details

Flight Number: DLH2148
Departure: Munich Airport (EDDM) at 14:40
Arrival: Stuttgart Airport (EDDS) at 15:25
Route: Lufthansa Passenger Schedule. Enter filed route here before submitting Pirep.

Weather Information
Getting current METAR information for EDDM 191250Z 03005KT 340V080 CAVOK 21/12 Q1019 NOSIG
Getting current METAR information for EDDS 191250Z 04004KT 300V070 CAVOK 23/10 Q1018 NOSIG

Schedule Frequency

Route Map